createdAt,value
2022-11-29T00:02:40.562Z,19.40
2022-11-29T00:07:44.222Z,19.36
2022-11-29T00:12:47.704Z,19.37
2022-11-29T00:17:51.143Z,19.36
2022-11-29T00:22:54.538Z,19.34
2022-11-29T00:27:57.944Z,19.30
2022-11-29T00:33:03.127Z,19.29
2022-11-29T00:38:06.519Z,19.30
2022-11-29T00:43:10.013Z,19.29
2022-11-29T00:48:13.400Z,19.25
2022-11-29T00:53:16.818Z,19.29
2022-11-29T00:58:20.299Z,19.26
2022-11-29T01:03:23.708Z,19.24
2022-11-29T01:08:28.168Z,19.27
2022-11-29T01:13:31.577Z,19.27
2022-11-29T01:18:35.004Z,19.24
2022-11-29T01:23:38.392Z,19.24
2022-11-29T01:28:42.163Z,19.22
2022-11-29T01:33:45.705Z,19.19
2022-11-29T01:38:49.120Z,19.20
2022-11-29T01:43:52.525Z,19.17
2022-11-29T01:48:55.907Z,19.15
2022-11-29T01:53:59.307Z,19.16
2022-11-29T01:59:02.719Z,19.16
2022-11-29T02:04:06.083Z,19.14
2022-11-29T02:09:09.516Z,19.11
2022-11-29T02:14:12.931Z,19.10
2022-11-29T02:19:16.306Z,19.11
2022-11-29T02:24:20.865Z,19.09
2022-11-29T02:29:24.330Z,19.10
2022-11-29T02:34:27.971Z,19.08
2022-11-29T02:39:31.389Z,19.08
2022-11-29T02:44:34.772Z,19.05
2022-11-29T02:49:38.144Z,19.13
2022-11-29T02:54:41.700Z,19.06
2022-11-29T02:59:45.452Z,19.00
2022-11-29T03:04:48.878Z,18.98
2022-11-29T03:09:52.288Z,18.96
2022-11-29T03:14:55.776Z,18.97
2022-11-29T03:19:59.374Z,18.94
2022-11-29T03:25:02.788Z,18.95
2022-11-29T03:30:06.170Z,18.91
2022-11-29T03:35:09.554Z,18.89
2022-11-29T03:40:12.929Z,18.88
2022-11-29T03:45:16.357Z,18.87
2022-11-29T03:50:19.830Z,18.83
2022-11-29T03:55:23.253Z,18.82
2022-11-29T04:00:26.708Z,18.82
2022-11-29T04:05:30.349Z,18.83
2022-11-29T04:10:33.792Z,18.83
2022-11-29T04:15:37.507Z,18.82
2022-11-29T04:20:44.172Z,18.78
2022-11-29T04:25:51.393Z,18.77
2022-11-29T04:30:54.802Z,18.73
2022-11-29T04:35:58.245Z,18.74
2022-11-29T04:41:01.686Z,18.70
2022-11-29T04:46:05.173Z,18.69
2022-11-29T04:51:09.737Z,18.69
2022-11-29T04:56:13.183Z,18.66
2022-11-29T05:01:16.653Z,18.65
2022-11-29T05:06:20.327Z,18.64
2022-11-29T05:11:26.944Z,18.61
2022-11-29T05:16:30.931Z,18.60
2022-11-29T05:21:34.326Z,18.58
2022-11-29T05:26:37.687Z,18.54
2022-11-29T05:31:41.289Z,18.52
2022-11-29T05:36:44.724Z,18.51
2022-11-29T05:41:48.128Z,18.50
2022-11-29T05:46:52.592Z,18.48
2022-11-29T05:51:56.030Z,18.45
2022-11-29T05:56:59.456Z,18.43
2022-11-29T06:02:02.888Z,18.41
2022-11-29T06:07:07.128Z,18.33
2022-11-29T06:12:10.520Z,18.30
2022-11-29T06:17:13.928Z,18.28
2022-11-29T06:22:20.996Z,18.28
2022-11-29T06:27:24.577Z,18.28
2022-11-29T06:32:28.132Z,18.26
2022-11-29T06:37:31.503Z,18.22
2022-11-29T06:42:35.005Z,18.22
2022-11-29T06:47:38.482Z,18.23
2022-11-29T06:52:41.977Z,18.18
2022-11-29T06:57:45.475Z,18.18
2022-11-29T07:02:48.917Z,18.26
2022-11-29T07:07:53.221Z,18.24
2022-11-29T07:12:56.748Z,18.41
2022-11-29T07:18:00.146Z,18.54
2022-11-29T07:23:03.571Z,18.64
2022-11-29T07:28:06.978Z,18.63
2022-11-29T07:33:10.391Z,18.62
2022-11-29T07:38:13.850Z,18.61
2022-11-29T07:43:17.604Z,18.62
2022-11-29T07:48:21.069Z,18.61
2022-11-29T07:53:24.454Z,18.59
2022-11-29T07:58:27.980Z,18.59
2022-11-29T08:03:32.973Z,18.55
2022-11-29T08:08:42.217Z,18.89
2022-11-29T08:13:47.684Z,19.13
2022-11-29T08:18:52.160Z,19.28
2022-11-29T08:23:55.577Z,19.75
2022-11-29T08:28:58.968Z,18.63
2022-11-29T08:34:02.413Z,18.17
2022-11-29T08:39:09.151Z,17.32
2022-11-29T08:44:13.177Z,17.99
2022-11-29T08:49:16.606Z,18.18
2022-11-29T08:54:20.067Z,17.91
2022-11-29T08:59:23.451Z,18.27
2022-11-29T09:04:26.831Z,18.35
2022-11-29T09:09:30.211Z,18.39
2022-11-29T09:14:33.599Z,18.44
2022-11-29T09:19:37.025Z,18.48
2022-11-29T09:24:40.429Z,18.48
2022-11-29T09:29:43.929Z,18.53
2022-11-29T09:34:47.748Z,18.59
2022-11-29T09:39:51.342Z,18.59
2022-11-29T09:44:54.724Z,18.65
2022-11-29T09:49:58.129Z,18.43
2022-11-29T09:55:01.657Z,18.64
2022-11-29T10:00:05.078Z,18.68
2022-11-29T10:05:08.815Z,18.68
2022-11-29T10:10:12.198Z,18.76
2022-11-29T10:15:17.026Z,18.82
2022-11-29T10:20:20.571Z,18.84
2022-11-29T10:25:24.031Z,18.85
2022-11-29T10:30:27.545Z,18.90
2022-11-29T10:35:31.081Z,18.93
2022-11-29T10:40:34.660Z,18.91
2022-11-29T10:45:39.083Z,18.93
2022-11-29T10:50:44.017Z,19.00
2022-11-29T10:55:47.428Z,18.87
2022-11-29T11:00:50.960Z,18.93
2022-11-29T11:05:54.572Z,19.02
2022-11-29T11:11:01.838Z,18.99
2022-11-29T11:16:05.750Z,18.94
2022-11-29T11:21:09.234Z,18.97
2022-11-29T11:26:12.712Z,18.99
2022-11-29T11:31:16.288Z,19.04
2022-11-29T11:36:20.863Z,19.06
2022-11-29T11:41:44.307Z,19.08
2022-11-29T11:46:47.724Z,19.06
2022-11-29T11:51:51.192Z,19.15
2022-11-29T11:56:54.595Z,19.09
2022-11-29T12:01:59.097Z,19.13
2022-11-29T12:07:02.951Z,19.09
2022-11-29T12:12:06.340Z,19.12
2022-11-29T12:17:09.757Z,19.00
2022-11-29T12:22:13.265Z,19.07
2022-11-29T12:27:16.776Z,18.96
2022-11-29T12:32:20.302Z,19.04
2022-11-29T12:37:23.829Z,19.17
2022-11-29T12:42:27.237Z,19.07
2022-11-29T12:47:37.982Z,18.88
2022-11-29T12:52:43.607Z,18.98
2022-11-29T12:57:47.065Z,19.01
2022-11-29T13:02:50.558Z,19.21
2022-11-29T13:07:54.341Z,19.26
2022-11-29T13:12:57.727Z,19.17
2022-11-29T13:18:01.116Z,19.14
2022-11-29T13:23:04.508Z,19.09
2022-11-29T13:28:07.916Z,18.99
2022-11-29T13:33:11.343Z,18.98
2022-11-29T13:38:14.786Z,19.07
2022-11-29T13:43:19.322Z,18.96
2022-11-29T13:48:27.853Z,18.93
2022-11-29T13:53:31.633Z,18.91
2022-11-29T13:58:35.020Z,18.83
2022-11-29T14:03:38.961Z,18.87
2022-11-29T14:09:10.805Z,18.83
2022-11-29T14:14:05.859Z,18.85
2022-11-29T14:19:09.749Z,18.93
2022-11-29T14:24:13.261Z,18.74
2022-11-29T14:29:16.648Z,18.68
2022-11-29T14:34:20.161Z,18.77
2022-11-29T14:39:23.697Z,18.72
2022-11-29T14:44:28.179Z,18.70
2022-11-29T14:49:31.696Z,18.66
2022-11-29T14:54:35.281Z,18.73
2022-11-29T14:59:38.812Z,18.65
2022-11-29T15:04:42.233Z,18.60
2022-11-29T15:09:45.612Z,18.68
2022-11-29T15:14:49.207Z,18.57
2022-11-29T15:19:52.592Z,18.51
2022-11-29T15:24:56.038Z,18.53
2022-11-29T15:29:59.998Z,18.48
2022-11-29T15:35:03.404Z,18.57
2022-11-29T15:40:06.835Z,18.64
2022-11-29T15:45:10.254Z,18.70
2022-11-29T15:50:13.709Z,18.70
2022-11-29T15:55:17.204Z,18.73
2022-11-29T16:00:21.678Z,18.75
2022-11-29T16:05:25.090Z,18.71
2022-11-29T16:10:34.852Z,18.72
2022-11-29T16:15:38.900Z,18.72
2022-11-29T16:20:45.462Z,18.70
2022-11-29T16:25:48.828Z,18.79
2022-11-29T16:30:52.195Z,18.86
2022-11-29T16:35:55.576Z,18.81
2022-11-29T16:40:59.012Z,18.94
2022-11-29T16:46:02.498Z,17.65
2022-11-29T16:51:05.914Z,15.44
2022-11-29T16:56:09.395Z,16.39
2022-11-29T17:01:12.846Z,15.11
2022-11-29T17:06:16.379Z,18.11
2022-11-29T17:11:19.874Z,18.32
2022-11-29T17:16:23.383Z,18.47
2022-11-29T17:21:26.899Z,18.50
2022-11-29T17:26:30.512Z,18.47
2022-11-29T17:31:34.002Z,18.57
2022-11-29T17:36:37.590Z,18.47
2022-11-29T17:41:40.958Z,18.56
2022-11-29T17:46:44.374Z,18.59
2022-11-29T17:51:52.598Z,18.61
2022-11-29T17:56:56.638Z,18.61
2022-11-29T18:02:03.930Z,18.72
2022-11-29T18:07:07.439Z,18.68
2022-11-29T18:12:13.784Z,18.80
2022-11-29T18:17:17.163Z,18.91
2022-11-29T18:22:20.585Z,19.06
2022-11-29T18:27:24.145Z,18.94
2022-11-29T18:32:27.623Z,18.91
2022-11-29T18:37:57.434Z,18.91
2022-11-29T18:42:54.329Z,18.96
2022-11-29T18:47:57.892Z,18.89
2022-11-29T18:53:01.497Z,18.92
2022-11-29T18:58:06.635Z,18.93
2022-11-29T19:03:10.036Z,18.91
2022-11-29T19:08:13.474Z,18.92
2022-11-29T19:13:16.909Z,18.92
2022-11-29T19:18:20.313Z,18.84
2022-11-29T19:23:23.892Z,18.82
2022-11-29T19:28:27.247Z,18.78
2022-11-29T19:33:30.611Z,18.77
2022-11-29T19:38:33.999Z,18.75
2022-11-29T19:43:37.479Z,18.72
2022-11-29T19:48:40.915Z,18.74
2022-11-29T19:53:44.324Z,19.03
2022-11-29T19:58:47.763Z,19.11
2022-11-29T20:03:51.290Z,18.81
2022-11-29T20:08:54.744Z,18.69
2022-11-29T20:13:58.191Z,18.70
2022-11-29T20:19:01.655Z,18.66
2022-11-29T20:24:05.175Z,18.69
2022-11-29T20:29:08.619Z,18.61
2022-11-29T20:34:12.168Z,18.71
2022-11-29T20:39:15.578Z,18.94
2022-11-29T20:44:19.013Z,19.53
2022-11-29T20:49:22.421Z,19.43
2022-11-29T20:54:25.800Z,19.54
2022-11-29T20:59:29.168Z,19.66
2022-11-29T21:04:32.523Z,19.68
2022-11-29T21:09:35.915Z,19.67
2022-11-29T21:14:39.300Z,19.70
2022-11-29T21:19:42.684Z,19.71
2022-11-29T21:24:47.225Z,19.72
2022-11-29T21:29:50.787Z,19.70
2022-11-29T21:34:54.147Z,19.68
2022-11-29T21:39:57.600Z,19.66
2022-11-29T21:45:00.986Z,19.65
2022-11-29T21:50:04.362Z,19.60
2022-11-29T21:55:07.752Z,19.48
2022-11-29T22:00:11.207Z,19.45
2022-11-29T22:05:14.595Z,19.42
2022-11-29T22:10:18.005Z,19.38
2022-11-29T22:15:24.837Z,19.36
2022-11-29T22:20:28.900Z,19.34
2022-11-29T22:25:32.327Z,19.32
2022-11-29T22:30:35.934Z,19.30
2022-11-29T22:35:39.350Z,19.29
2022-11-29T22:40:42.769Z,19.26
2022-11-29T22:45:46.179Z,19.24
2022-11-29T22:50:49.584Z,19.23
2022-11-29T22:55:53.056Z,19.21
2022-11-29T23:00:56.474Z,19.18
2022-11-29T23:06:01.911Z,19.16
2022-11-29T23:11:05.270Z,19.14
2022-11-29T23:16:08.687Z,19.13
2022-11-29T23:21:12.179Z,19.09
2022-11-29T23:26:15.531Z,19.09
2022-11-29T23:31:18.957Z,19.05
2022-11-29T23:36:22.354Z,19.01
2022-11-29T23:41:25.800Z,18.99
2022-11-29T23:46:29.179Z,18.97
2022-11-29T23:51:32.543Z,18.91
2022-11-29T23:56:36.107Z,18.89
